Time;durP1;ratioP1;P1;durP2;ratioP2;P2;SDS_P1;SDS_P2;PMS_P1;PMS_P2;Temp;Humidity;BMP_temperature;BMP_pressure;BME280_temperature;BME280_humidity;BME280_pressure;Samples;Min_cycle;Max_cycle;Signal;HPM_P1;HPM_P2
2023/12/31 00:00:14;;;;;;;;;;;6.10;99.90;;;;;;5088858;28;19928;-73
2023/12/31 00:02:41;;;;;;;;;;;6.10;99.90;;;;;;5089431;28;19985;-73
2023/12/31 00:05:08;;;;;;;;;;;6.10;99.90;;;;;;5089865;28;20566;-73
2023/12/31 00:07:34;;;;;;;;;;;6.10;99.90;;;;;;5089716;28;20417;-70
2023/12/31 00:10:02;;;;;;;;;;;6.20;99.90;;;;;;5088545;28;19977;-71
2023/12/31 00:12:28;;;;;;;;;;;6.20;99.90;;;;;;5089269;28;19971;-70
2023/12/31 00:14:55;;;;;;;;;;;6.20;99.90;;;;;;5088842;28;19928;-69
2023/12/31 00:17:21;;;;;;;;;;;6.20;99.90;;;;;;5088820;28;19957;-69
2023/12/31 00:19:49;;;;;;;;;;;6.10;99.90;;;;;;5089146;28;20378;-70
2023/12/31 00:22:15;;;;;;;;;;;6.10;99.90;;;;;;5089543;28;19972;-69
2023/12/31 00:24:42;;;;;;;;;;;6.10;99.90;;;;;;5088577;28;19967;-70
2023/12/31 00:27:08;;;;;;;;;;;6.10;99.90;;;;;;5087929;28;19978;-69
2023/12/31 00:29:35;;;;;;;;;;;6.20;99.90;;;;;;5090488;28;19961;-69
2023/12/31 00:32:01;;;;;;;;;;;6.20;99.90;;;;;;5088849;28;20605;-69
2023/12/31 00:34:28;;;;;;;;;;;6.20;99.90;;;;;;5089578;28;19927;-69
2023/12/31 00:36:56;;;;;;;;;;;6.20;99.90;;;;;;5089816;28;19931;-69
2023/12/31 00:39:22;;;;;;;;;;;6.20;99.90;;;;;;5089879;28;20388;-69
2023/12/31 00:41:49;;;;;;;;;;;6.20;99.90;;;;;;5088721;28;19940;-69
2023/12/31 00:44:15;;;;;;;;;;;6.20;99.90;;;;;;5089611;28;20390;-69
2023/12/31 00:46:42;;;;;;;;;;;6.20;99.90;;;;;;5088669;28;19974;-69
2023/12/31 00:49:08;;;;;;;;;;;6.20;99.90;;;;;;5088844;28;21105;-69
2023/12/31 00:51:35;;;;;;;;;;;6.20;99.90;;;;;;5089250;28;20377;-69
2023/12/31 00:54:03;;;;;;;;;;;6.10;99.90;;;;;;5089699;28;19968;-69
2023/12/31 00:56:29;;;;;;;;;;;6.10;99.90;;;;;;5088209;28;19924;-69
2023/12/31 00:58:56;;;;;;;;;;;6.00;99.90;;;;;;5089347;28;19933;-70
2023/12/31 01:01:22;;;;;;;;;;;5.90;99.90;;;;;;5089389;28;19932;-70
2023/12/31 01:03:49;;;;;;;;;;;5.90;99.90;;;;;;5089577;28;20017;-69
2023/12/31 01:06:16;;;;;;;;;;;5.90;99.90;;;;;;5087908;28;20015;-70
2023/12/31 01:08:42;;;;;;;;;;;5.80;99.90;;;;;;5088986;28;20443;-70
2023/12/31 01:11:10;;;;;;;;;;;5.80;99.90;;;;;;5089484;28;19962;-70
2023/12/31 01:13:37;;;;;;;;;;;5.80;99.90;;;;;;5089270;28;19932;-70
2023/12/31 01:16:04;;;;;;;;;;;5.70;99.90;;;;;;5088288;28;20000;-70
2023/12/31 01:18:30;;;;;;;;;;;5.70;99.90;;;;;;5088585;28;19968;-70
2023/12/31 01:20:57;;;;;;;;;;;5.70;99.90;;;;;;5088970;28;19985;-70
2023/12/31 01:23:23;;;;;;;;;;;5.70;99.90;;;;;;5088672;28;19936;-69
2023/12/31 01:25:50;;;;;;;;;;;5.70;99.90;;;;;;5089066;28;20374;-69
2023/12/31 01:28:17;;;;;;;;;;;5.70;99.90;;;;;;5088988;28;19977;-69
2023/12/31 01:30:45;;;;;;;;;;;5.60;99.90;;;;;;5087814;28;19954;-70
2023/12/31 01:33:11;;;;;;;;;;;5.60;99.90;;;;;;5087875;28;19924;-70
2023/12/31 01:35:38;;;;;;;;;;;5.60;99.90;;;;;;5088846;28;19973;-70
2023/12/31 01:38:04;;;;;;;;;;;5.60;99.90;;;;;;5088104;28;19936;-70
2023/12/31 01:40:31;;;;;;;;;;;5.60;99.90;;;;;;5088659;28;19924;-70
2023/12/31 01:42:57;;;;;;;;;;;5.60;99.90;;;;;;5088969;28;19924;-70
2023/12/31 01:45:25;;;;;;;;;;;5.60;99.90;;;;;;5087918;28;19936;-70
2023/12/31 01:47:52;;;;;;;;;;;5.50;99.90;;;;;;5088952;28;19993;-70
2023/12/31 01:50:19;;;;;;;;;;;5.50;99.90;;;;;;5087434;28;19932;-70
2023/12/31 01:52:47;;;;;;;;;;;5.50;99.90;;;;;;5087969;28;19928;-69
2023/12/31 01:55:13;;;;;;;;;;;5.40;99.90;;;;;;5088790;28;19924;-69
2023/12/31 01:57:40;;;;;;;;;;;5.40;99.90;;;;;;5089099;28;19932;-70
2023/12/31 02:00:07;;;;;;;;;;;5.30;99.90;;;;;;5087746;28;19977;-69
2023/12/31 02:02:35;;;;;;;;;;;5.20;99.90;;;;;;5088501;28;19931;-69
2023/12/31 02:05:02;;;;;;;;;;;5.20;99.90;;;;;;5087976;28;20001;-69
2023/12/31 02:07:28;;;;;;;;;;;5.20;99.90;;;;;;5088893;28;19932;-69
2023/12/31 02:09:55;;;;;;;;;;;5.10;99.90;;;;;;5087348;28;19928;-69
2023/12/31 02:12:22;;;;;;;;;;;5.10;99.90;;;;;;5087394;28;19978;-69
2023/12/31 02:14:49;;;;;;;;;;;5.00;99.90;;;;;;5088436;28;19993;-69
2023/12/31 02:17:15;;;;;;;;;;;5.00;99.90;;;;;;5086656;28;19932;-69
2023/12/31 02:19:43;;;;;;;;;;;5.00;99.90;;;;;;5087691;28;19928;-69
2023/12/31 02:22:10;;;;;;;;;;;4.90;99.90;;;;;;5087783;28;20364;-70
2023/12/31 02:24:41;;;;;;;;;;;5.00;99.90;;;;;;5088474;28;19969;-69
2023/12/31 02:27:08;;;;;;;;;;;5.00;99.90;;;;;;5086817;28;19931;-69
2023/12/31 02:29:35;;;;;;;;;;;5.00;99.90;;;;;;5087691;28;19924;-69
2023/12/31 02:32:01;;;;;;;;;;;5.00;99.90;;;;;;5087607;28;19985;-69
2023/12/31 02:34:28;;;;;;;;;;;4.90;99.90;;;;;;5088425;28;19932;-69
2023/12/31 02:36:54;;;;;;;;;;;4.90;99.90;;;;;;5087910;28;20320;-70
2023/12/31 02:39:22;;;;;;;;;;;4.90;99.90;;;;;;5087791;28;19936;-69
2023/12/31 02:41:48;;;;;;;;;;;5.00;99.90;;;;;;5087421;28;19924;-70
2023/12/31 02:44:16;;;;;;;;;;;5.00;99.90;;;;;;5087458;28;19962;-70
2023/12/31 02:46:42;;;;;;;;;;;5.00;99.90;;;;;;5087982;28;20001;-70
2023/12/31 02:49:11;;;;;;;;;;;5.00;99.90;;;;;;5087310;28;19990;-70
2023/12/31 02:51:37;;;;;;;;;;;5.00;99.90;;;;;;5087602;28;19928;-70
2023/12/31 02:54:04;;;;;;;;;;;5.00;99.90;;;;;;5087313;28;19932;-70
2023/12/31 02:56:30;;;;;;;;;;;4.90;99.90;;;;;;5087085;28;19932;-70
2023/12/31 02:58:57;;;;;;;;;;;4.90;99.90;;;;;;5087247;28;19924;-70
2023/12/31 03:01:25;;;;;;;;;;;4.90;99.90;;;;;;5087988;28;20018;-70
2023/12/31 03:03:51;;;;;;;;;;;4.80;99.90;;;;;;5086984;28;19924;-70
2023/12/31 03:06:18;;;;;;;;;;;4.80;99.90;;;;;;5087862;28;20359;-70
2023/12/31 03:08:44;;;;;;;;;;;4.80;99.90;;;;;;5087362;28;19977;-70
2023/12/31 03:11:11;;;;;;;;;;;4.80;99.90;;;;;;5086706;28;20471;-70
2023/12/31 03:13:37;;;;;;;;;;;4.80;99.90;;;;;;5086794;28;19977;-70
2023/12/31 03:16:04;;;;;;;;;;;4.80;99.90;;;;;;5087293;28;19936;-70
2023/12/31 03:18:32;;;;;;;;;;;4.80;99.90;;;;;;5086359;28;19928;-70
2023/12/31 03:20:59;;;;;;;;;;;4.80;99.90;;;;;;5087463;28;19932;-70
2023/12/31 03:23:25;;;;;;;;;;;4.80;99.90;;;;;;5087038;28;21237;-70
2023/12/31 03:25:52;;;;;;;;;;;4.70;99.90;;;;;;5086229;28;20382;-70
2023/12/31 03:28:18;;;;;;;;;;;4.70;99.90;;;;;;5086633;28;19936;-70
2023/12/31 03:30:45;;;;;;;;;;;4.70;99.90;;;;;;5086628;28;19924;-70
2023/12/31 03:33:11;;;;;;;;;;;4.60;99.90;;;;;;5087116;28;19931;-70
2023/12/31 03:35:39;;;;;;;;;;;4.60;99.90;;;;;;5087757;28;19981;-70
2023/12/31 03:38:05;;;;;;;;;;;4.50;99.90;;;;;;5087273;28;19998;-70
2023/12/31 03:40:32;;;;;;;;;;;4.40;99.90;;;;;;5086563;28;19978;-70
2023/12/31 03:42:58;;;;;;;;;;;4.40;99.90;;;;;;5086802;28;19981;-70
2023/12/31 03:45:25;;;;;;;;;;;4.40;99.90;;;;;;5086426;28;19993;-70
2023/12/31 03:47:51;;;;;;;;;;;4.40;99.90;;;;;;5087661;28;19932;-70
2023/12/31 03:50:18;;;;;;;;;;;4.30;99.90;;;;;;5087296;28;20377;-70
2023/12/31 03:52:46;;;;;;;;;;;4.40;99.90;;;;;;5087106;28;19932;-70
2023/12/31 03:55:13;;;;;;;;;;;4.50;99.90;;;;;;5085705;28;20011;-70
2023/12/31 03:57:39;;;;;;;;;;;4.60;99.90;;;;;;5086420;28;19924;-70
2023/12/31 04:00:07;;;;;;;;;;;4.70;99.90;;;;;;5087330;28;19936;-70
2023/12/31 04:02:34;;;;;;;;;;;4.80;99.90;;;;;;5087399;28;20016;-70
2023/12/31 04:05:01;;;;;;;;;;;4.90;99.90;;;;;;5086789;28;20295;-70
2023/12/31 04:07:27;;;;;;;;;;;5.00;99.90;;;;;;5086442;28;19978;-70
2023/12/31 04:09:55;;;;;;;;;;;5.00;99.90;;;;;;5086431;28;20473;-70
2023/12/31 04:12:22;;;;;;;;;;;5.00;99.90;;;;;;5086862;28;19986;-70
2023/12/31 04:14:48;;;;;;;;;;;5.00;99.90;;;;;;5087155;28;19928;-70
2023/12/31 04:17:15;;;;;;;;;;;4.90;99.90;;;;;;5089772;28;20398;-70
2023/12/31 04:19:41;;;;;;;;;;;4.90;99.90;;;;;;5090564;28;19957;-70
2023/12/31 04:22:08;;;;;;;;;;;4.90;99.90;;;;;;5089469;28;19982;-70
2023/12/31 04:24:34;;;;;;;;;;;4.90;99.90;;;;;;5089913;28;20459;-70
2023/12/31 04:27:02;;;;;;;;;;;5.00;99.90;;;;;;5090259;28;19985;-70
2023/12/31 04:29:28;;;;;;;;;;;5.00;99.90;;;;;;5089778;28;19977;-70
2023/12/31 04:31:55;;;;;;;;;;;5.10;99.90;;;;;;5090298;28;19985;-70
2023/12/31 04:34:21;;;;;;;;;;;5.20;99.90;;;;;;5089201;28;20336;-70
2023/12/31 04:36:48;;;;;;;;;;;5.30;99.90;;;;;;5089197;28;19928;-70
2023/12/31 04:39:14;;;;;;;;;;;5.30;99.90;;;;;;5089213;28;19936;-70
2023/12/31 04:41:41;;;;;;;;;;;5.40;99.90;;;;;;5088905;28;20390;-70
2023/12/31 04:44:09;;;;;;;;;;;5.40;99.90;;;;;;5089746;28;19932;-70
2023/12/31 04:46:35;;;;;;;;;;;5.50;99.90;;;;;;5089198;28;19954;-70
2023/12/31 04:49:02;;;;;;;;;;;5.50;99.90;;;;;;5089920;28;19973;-70
2023/12/31 04:51:30;;;;;;;;;;;5.50;99.90;;;;;;5088457;28;20031;-70
2023/12/31 04:53:57;;;;;;;;;;;5.50;99.90;;;;;;5090563;28;19932;-70
2023/12/31 04:56:24;;;;;;;;;;;5.60;99.90;;;;;;5089619;28;20472;-70
2023/12/31 04:58:51;;;;;;;;;;;5.60;99.90;;;;;;5089501;28;20282;-70
2023/12/31 05:01:19;;;;;;;;;;;5.60;99.90;;;;;;5089030;28;19936;-70
2023/12/31 05:03:46;;;;;;;;;;;5.60;99.90;;;;;;5088956;28;19936;-70
2023/12/31 05:06:13;;;;;;;;;;;5.50;99.90;;;;;;5089780;28;19932;-70
2023/12/31 05:08:41;;;;;;;;;;;5.60;99.90;;;;;;5089712;28;20401;-70
2023/12/31 05:11:07;;;;;;;;;;;5.60;99.90;;;;;;5089958;28;19924;-70
2023/12/31 05:13:34;;;;;;;;;;;5.60;99.90;;;;;;5089986;28;19962;-70
2023/12/31 05:16:02;;;;;;;;;;;5.50;99.90;;;;;;5089271;28;19989;-70
2023/12/31 05:18:30;;;;;;;;;;;5.50;99.90;;;;;;5089092;28;19964;-70
2023/12/31 05:20:56;;;;;;;;;;;5.50;99.90;;;;;;5087944;28;19928;-70
2023/12/31 05:23:23;;;;;;;;;;;5.50;99.90;;;;;;5089486;28;19924;-70
2023/12/31 05:25:50;;;;;;;;;;;5.50;99.90;;;;;;5089607;28;20360;-70
2023/12/31 05:28:16;;;;;;;;;;;5.50;99.90;;;;;;5088431;28;20668;-70
2023/12/31 05:30:43;;;;;;;;;;;5.50;99.90;;;;;;5088602;28;19928;-70
2023/12/31 05:33:10;;;;;;;;;;;5.50;99.90;;;;;;5088830;28;19924;-70
2023/12/31 05:35:38;;;;;;;;;;;5.40;99.90;;;;;;5089108;28;19977;-70
2023/12/31 05:38:05;;;;;;;;;;;5.40;99.90;;;;;;5089522;28;19924;-70
2023/12/31 05:40:31;;;;;;;;;;;5.40;99.90;;;;;;5088368;28;19973;-70
2023/12/31 05:42:58;;;;;;;;;;;5.40;99.90;;;;;;5088925;28;19932;-70
2023/12/31 05:45:24;;;;;;;;;;;5.40;99.90;;;;;;5088385;28;19966;-70
2023/12/31 05:47:51;;;;;;;;;;;5.30;99.90;;;;;;5088687;28;19989;-70
2023/12/31 05:50:17;;;;;;;;;;;5.30;99.90;;;;;;5089007;28;20029;-70
2023/12/31 05:52:45;;;;;;;;;;;5.30;99.90;;;;;;5088554;28;20344;-70
2023/12/31 05:55:12;;;;;;;;;;;5.30;99.90;;;;;;5089201;28;19931;-70
2023/12/31 05:57:39;;;;;;;;;;;5.20;99.90;;;;;;5088323;28;20058;-70
2023/12/31 06:00:07;;;;;;;;;;;5.20;99.90;;;;;;5088159;28;19935;-70
2023/12/31 06:02:33;;;;;;;;;;;5.20;99.90;;;;;;5088820;28;19932;-70
2023/12/31 06:05:00;;;;;;;;;;;5.20;99.90;;;;;;5088058;28;19931;-70
2023/12/31 06:07:26;;;;;;;;;;;5.20;99.90;;;;;;5088167;28;19932;-70
2023/12/31 06:09:54;;;;;;;;;;;5.20;99.90;;;;;;5088424;28;19936;-70
2023/12/31 06:12:21;;;;;;;;;;;5.20;99.90;;;;;;5088488;28;19985;-70
2023/12/31 06:14:47;;;;;;;;;;;5.20;99.90;;;;;;5088010;28;19932;-70
2023/12/31 06:17:14;;;;;;;;;;;5.10;99.90;;;;;;5085170;28;20398;-70
2023/12/31 06:19:40;;;;;;;;;;;5.20;99.90;;;;;;5087310;28;20468;-70
2023/12/31 06:22:07;;;;;;;;;;;5.20;99.90;;;;;;5087996;28;19938;-70
2023/12/31 06:24:33;;;;;;;;;;;5.20;99.90;;;;;;5087643;28;20344;-70
2023/12/31 06:27:01;;;;;;;;;;;5.20;99.90;;;;;;5088058;28;20439;-70
2023/12/31 06:29:28;;;;;;;;;;;5.20;99.90;;;;;;5087271;28;19924;-70
2023/12/31 06:31:54;;;;;;;;;;;5.20;99.90;;;;;;5087384;28;20402;-70
2023/12/31 06:34:21;;;;;;;;;;;5.20;99.90;;;;;;5088311;28;19977;-70
2023/12/31 06:36:47;;;;;;;;;;;5.20;99.90;;;;;;5087275;28;19924;-70
2023/12/31 06:39:14;;;;;;;;;;;5.30;99.90;;;;;;5086496;28;19924;-70
2023/12/31 06:41:40;;;;;;;;;;;5.30;99.90;;;;;;5087512;28;19982;-70
2023/12/31 06:44:08;;;;;;;;;;;5.20;99.90;;;;;;5087419;28;19977;-70
2023/12/31 06:46:34;;;;;;;;;;;5.30;99.90;;;;;;5087226;28;19932;-70
2023/12/31 06:49:01;;;;;;;;;;;5.30;99.90;;;;;;5087312;28;20340;-70
2023/12/31 06:51:27;;;;;;;;;;;5.30;99.90;;;;;;5087476;28;19985;-70
2023/12/31 06:53:54;;;;;;;;;;;5.40;99.90;;;;;;5088325;28;19993;-70
2023/12/31 06:56:21;;;;;;;;;;;5.40;99.90;;;;;;5087614;28;19993;-68
2023/12/31 06:58:48;;;;;;;;;;;5.40;99.90;;;;;;5085519;28;20302;-68
2023/12/31 07:01:16;;;;;;;;;;;5.40;99.90;;;;;;5087438;28;19940;-69
2023/12/31 07:03:42;;;;;;;;;;;5.50;99.90;;;;;;5087922;28;19932;-69
2023/12/31 07:06:08;;;;;;;;;;;5.50;99.90;;;;;;5087190;28;19991;-69
2023/12/31 07:08:35;;;;;;;;;;;5.60;99.90;;;;;;5087286;28;19932;-68
2023/12/31 07:11:02;;;;;;;;;;;5.60;99.90;;;;;;5087693;28;19977;-68
2023/12/31 07:13:30;;;;;;;;;;;5.60;99.90;;;;;;5085828;28;19931;-69
2023/12/31 07:15:57;;;;;;;;;;;5.60;99.90;;;;;;5087007;28;20466;-69
2023/12/31 07:18:26;;;;;;;;;;;5.60;99.90;;;;;;5087079;28;19932;-69
2023/12/31 07:20:54;;;;;;;;;;;5.60;99.90;;;;;;5086109;28;20026;-69
2023/12/31 07:23:21;;;;;;;;;;;5.70;99.90;;;;;;5087071;28;19932;-69
2023/12/31 07:25:47;;;;;;;;;;;5.70;99.90;;;;;;5087124;28;20652;-69
2023/12/31 07:28:14;;;;;;;;;;;5.70;99.90;;;;;;5087804;28;19924;-69
2023/12/31 07:30:40;;;;;;;;;;;5.70;99.90;;;;;;5086249;28;20469;-69
2023/12/31 07:33:07;;;;;;;;;;;5.70;99.90;;;;;;5087177;28;19924;-69
2023/12/31 07:35:36;;;;;;;;;;;5.60;99.90;;;;;;5086273;28;19928;-69
2023/12/31 07:38:03;;;;;;;;;;;5.60;99.90;;;;;;5086252;28;19932;-69
2023/12/31 07:40:29;;;;;;;;;;;5.50;99.90;;;;;;5086491;28;19939;-69
2023/12/31 07:42:56;;;;;;;;;;;5.50;99.90;;;;;;5086011;28;19955;-69
2023/12/31 07:45:23;;;;;;;;;;;5.50;99.90;;;;;;5087176;28;19932;-69
2023/12/31 07:47:50;;;;;;;;;;;5.40;99.90;;;;;;5087097;28;20019;-69
2023/12/31 07:50:16;;;;;;;;;;;5.40;99.90;;;;;;5088595;28;19982;-69
2023/12/31 07:52:44;;;;;;;;;;;5.40;99.90;;;;;;5090821;28;20503;-68
2023/12/31 07:55:10;;;;;;;;;;;5.40;99.90;;;;;;5091632;28;19936;-69
2023/12/31 07:57:38;;;;;;;;;;;5.40;99.90;;;;;;5089652;28;21185;-68
2023/12/31 08:00:05;;;;;;;;;;;5.50;99.90;;;;;;5089577;28;19932;-69
2023/12/31 08:02:31;;;;;;;;;;;5.50;99.90;;;;;;5089172;28;19932;-68
2023/12/31 08:04:58;;;;;;;;;;;5.60;99.90;;;;;;5091103;28;19969;-69
2023/12/31 08:07:24;;;;;;;;;;;5.60;99.90;;;;;;5090840;28;19931;-69
2023/12/31 08:09:52;;;;;;;;;;;5.70;99.90;;;;;;5090268;28;19932;-69
2023/12/31 08:12:19;;;;;;;;;;;5.70;99.90;;;;;;5090319;28;19932;-68
2023/12/31 08:14:45;;;;;;;;;;;5.80;99.90;;;;;;5090348;28;19978;-69
2023/12/31 08:17:12;;;;;;;;;;;5.80;99.90;;;;;;5089659;28;19981;-69
2023/12/31 08:19:38;;;;;;;;;;;5.80;99.90;;;;;;5090045;28;19932;-69
2023/12/31 08:22:05;;;;;;;;;;;5.80;99.90;;;;;;5089522;28;19981;-68
2023/12/31 08:24:31;;;;;;;;;;;5.70;99.90;;;;;;5090003;28;19936;-69
2023/12/31 08:26:59;;;;;;;;;;;5.70;99.90;;;;;;5090797;28;20402;-68
2023/12/31 08:29:25;;;;;;;;;;;5.70;99.90;;;;;;5090749;28;19924;-68
2023/12/31 08:31:53;;;;;;;;;;;5.70;99.90;;;;;;5089440;28;20298;-68
2023/12/31 08:34:20;;;;;;;;;;;5.80;99.90;;;;;;5089222;28;20386;-69
2023/12/31 08:36:46;;;;;;;;;;;5.80;99.90;;;;;;5089706;28;20435;-68
2023/12/31 08:39:13;;;;;;;;;;;5.90;99.90;;;;;;5089895;28;19928;-67
2023/12/31 08:41:40;;;;;;;;;;;6.00;99.90;;;;;;5089697;28;19924;-68
2023/12/31 08:44:07;;;;;;;;;;;6.00;99.90;;;;;;5090080;28;19935;-68
2023/12/31 08:46:34;;;;;;;;;;;6.10;99.90;;;;;;5090059;28;19981;-69
2023/12/31 08:49:00;;;;;;;;;;;6.10;99.90;;;;;;5090150;28;19938;-68
2023/12/31 08:51:27;;;;;;;;;;;6.10;99.90;;;;;;5089391;28;20348;-67
2023/12/31 08:53:54;;;;;;;;;;;6.10;99.90;;;;;;5090338;28;19932;-68
2023/12/31 08:56:20;;;;;;;;;;;6.10;99.90;;;;;;5089934;28;20013;-68
2023/12/31 08:58:47;;;;;;;;;;;6.10;99.90;;;;;;5089207;28;20004;-68
2023/12/31 09:01:14;;;;;;;;;;;6.10;99.90;;;;;;5088415;28;19965;-68
2023/12/31 09:03:41;;;;;;;;;;;6.10;99.90;;;;;;5088821;28;20364;-68
2023/12/31 09:06:10;;;;;;;;;;;6.00;99.90;;;;;;5089339;28;19932;-68
2023/12/31 09:08:36;;;;;;;;;;;6.00;99.90;;;;;;5089224;28;19932;-68
2023/12/31 09:11:03;;;;;;;;;;;6.00;99.90;;;;;;5089665;28;21209;-69
2023/12/31 09:13:29;;;;;;;;;;;6.00;99.90;;;;;;5089258;28;20034;-68
2023/12/31 09:15:56;;;;;;;;;;;6.00;99.90;;;;;;5089270;28;19932;-68
2023/12/31 09:18:24;;;;;;;;;;;6.10;99.90;;;;;;5088578;28;19932;-68
2023/12/31 09:20:51;;;;;;;;;;;6.10;99.90;;;;;;5087216;28;20434;-68
2023/12/31 09:23:17;;;;;;;;;;;6.20;99.90;;;;;;5089914;28;19932;-68
2023/12/31 09:25:44;;;;;;;;;;;6.20;99.90;;;;;;5087928;28;19931;-70
2023/12/31 09:28:10;;;;;;;;;;;6.40;99.90;;;;;;5086160;28;19931;-70
2023/12/31 09:30:37;;;;;;;;;;;6.30;99.90;;;;;;5087459;28;19939;-69
2023/12/31 09:33:03;;;;;;;;;;;6.40;99.90;;;;;;5089036;28;19981;-70
2023/12/31 09:35:31;;;;;;;;;;;6.50;99.90;;;;;;5088374;28;19969;-70
2023/12/31 09:37:58;;;;;;;;;;;6.60;99.90;;;;;;5088840;28;20033;-70
2023/12/31 09:40:24;;;;;;;;;;;6.60;99.90;;;;;;5087506;28;19928;-69
2023/12/31 09:42:51;;;;;;;;;;;6.60;99.90;;;;;;5084734;28;19932;-70
2023/12/31 09:45:20;;;;;;;;;;;6.60;99.90;;;;;;5085101;28;19924;-71
2023/12/31 09:47:47;;;;;;;;;;;6.60;99.90;;;;;;5086561;28;19978;-70
2023/12/31 09:50:13;;;;;;;;;;;6.60;99.90;;;;;;5085088;28;19935;-70
2023/12/31 09:52:42;;;;;;;;;;;6.60;99.90;;;;;;5086285;28;20356;-71
2023/12/31 09:55:09;;;;;;;;;;;6.20;99.90;;;;;;5085271;28;19931;-70
2023/12/31 09:57:36;;;;;;;;;;;6.60;99.90;;;;;;5084025;28;19940;-71
2023/12/31 10:00:05;;;;;;;;;;;6.60;99.90;;;;;;5084359;28;20472;-70
2023/12/31 10:02:32;;;;;;;;;;;6.60;99.90;;;;;;5086462;28;19928;-70
2023/12/31 10:04:59;;;;;;;;;;;6.60;99.90;;;;;;5086821;28;19927;-70
2023/12/31 10:07:25;;;;;;;;;;;6.60;99.90;;;;;;5084936;28;19936;-68
2023/12/31 10:09:54;;;;;;;;;;;6.60;99.90;;;;;;5086765;28;19932;-68
2023/12/31 10:12:20;;;;;;;;;;;6.70;99.90;;;;;;5085696;28;20007;-70
2023/12/31 10:14:47;;;;;;;;;;;6.70;99.90;;;;;;5085882;28;19936;-69
2023/12/31 10:17:14;;;;;;;;;;;6.80;99.90;;;;;;5085721;28;19978;-69
2023/12/31 10:19:41;;;;;;;;;;;6.90;99.90;;;;;;5085539;28;20434;-69
2023/12/31 10:22:08;;;;;;;;;;;7.10;99.90;;;;;;5087226;28;19931;-68
2023/12/31 10:24:35;;;;;;;;;;;7.20;99.90;;;;;;5086304;28;19924;-69
2023/12/31 10:27:04;;;;;;;;;;;7.20;99.90;;;;;;5086408;28;19936;-70
2023/12/31 10:29:32;;;;;;;;;;;7.30;99.90;;;;;;5086431;28;19924;-69
2023/12/31 10:31:58;;;;;;;;;;;7.30;99.90;;;;;;5085370;28;21211;-69
2023/12/31 10:34:25;;;;;;;;;;;7.30;99.90;;;;;;5087014;28;19928;-68
2023/12/31 10:37:00;;;;;;;;;;;7.40;99.90;;;;;;5085303;28;19940;-68
2023/12/31 10:39:27;;;;;;;;;;;7.30;99.90;;;;;;5086661;28;20015;-70
2023/12/31 10:41:56;;;;;;;;;;;7.20;99.90;;;;;;5085726;28;19932;-70
2023/12/31 10:44:25;;;;;;;;;;;7.20;99.90;;;;;;5084165;28;19928;-71
2023/12/31 10:46:52;;;;;;;;;;;7.20;99.90;;;;;;5086351;28;19932;-71
2023/12/31 10:52:22;;;;;;;;;;;7.20;99.90;;;;;;5086182;28;20331;-70
2023/12/31 10:54:51;;;;;;;;;;;7.30;99.90;;;;;;5085398;28;19931;-70
2023/12/31 10:57:19;;;;;;;;;;;7.30;99.90;;;;;;5084263;28;20382;-70
2023/12/31 10:59:48;;;;;;;;;;;7.40;99.90;;;;;;5085494;28;19936;-69
2023/12/31 11:02:16;;;;;;;;;;;7.40;99.90;;;;;;5085070;28;20355;-69
2023/12/31 11:04:44;;;;;;;;;;;7.50;99.90;;;;;;5084416;28;20396;-69
2023/12/31 11:07:11;;;;;;;;;;;7.60;99.90;;;;;;5086320;28;20125;-69
2023/12/31 11:09:37;;;;;;;;;;;7.60;99.90;;;;;;5086605;28;19932;-69
2023/12/31 11:12:05;;;;;;;;;;;7.60;99.90;;;;;;5086320;28;19977;-69
2023/12/31 11:14:33;;;;;;;;;;;7.60;99.90;;;;;;5086257;28;19993;-69
2023/12/31 11:17:17;;;;;;;;;;;7.60;99.90;;;;;;5086154;28;19938;-70
2023/12/31 11:19:59;;;;;;;;;;;7.60;99.90;;;;;;5085376;28;20479;-68
2023/12/31 11:22:34;;;;;;;;;;;7.60;99.90;;;;;;5086541;28;19924;-67
2023/12/31 11:25:03;;;;;;;;;;;7.60;99.90;;;;;;5087665;28;19970;-68
2023/12/31 11:27:32;;;;;;;;;;;7.60;99.90;;;;;;5086371;28;19969;-68
2023/12/31 11:29:59;;;;;;;;;;;7.60;99.90;;;;;;5086502;28;19985;-68
2023/12/31 11:32:27;;;;;;;;;;;7.60;99.90;;;;;;5086642;28;19924;-68
2023/12/31 11:34:54;;;;;;;;;;;7.70;99.90;;;;;;5085936;28;20430;-67
2023/12/31 11:37:22;;;;;;;;;;;7.70;99.90;;;;;;5086872;28;19984;-67
2023/12/31 11:39:49;;;;;;;;;;;7.70;99.90;;;;;;5087136;28;19981;-68
2023/12/31 11:42:17;;;;;;;;;;;7.80;99.90;;;;;;5086998;28;19981;-68
2023/12/31 11:44:45;;;;;;;;;;;7.80;99.90;;;;;;5087546;28;20172;-68
2023/12/31 11:47:12;;;;;;;;;;;7.80;99.90;;;;;;5085351;28;19931;-68
2023/12/31 11:49:41;;;;;;;;;;;7.80;99.90;;;;;;5086701;28;19932;-69
2023/12/31 11:52:09;;;;;;;;;;;7.90;99.90;;;;;;5086642;28;20022;-68
2023/12/31 11:54:36;;;;;;;;;;;7.90;99.90;;;;;;5086842;28;19928;-68
2023/12/31 11:57:03;;;;;;;;;;;7.90;99.90;;;;;;5085954;28;19939;-69
2023/12/31 11:59:32;;;;;;;;;;;8.00;99.90;;;;;;5085907;28;19997;-68
2023/12/31 12:02:00;;;;;;;;;;;8.10;99.90;;;;;;5086121;28;19924;-69
2023/12/31 12:04:26;;;;;;;;;;;8.10;99.90;;;;;;5086200;28;19924;-70
2023/12/31 12:06:54;;;;;;;;;;;8.10;99.90;;;;;;5086334;28;19931;-69
2023/12/31 12:09:22;;;;;;;;;;;8.10;99.90;;;;;;5087037;28;19946;-69
2023/12/31 12:11:48;;;;;;;;;;;8.20;99.90;;;;;;5086804;28;19932;-70
2023/12/31 12:14:15;;;;;;;;;;;8.20;99.90;;;;;;5086049;28;19932;-69
2023/12/31 12:16:42;;;;;;;;;;;8.20;99.90;;;;;;5086205;28;20717;-69
2023/12/31 12:19:09;;;;;;;;;;;8.20;99.90;;;;;;5086104;28;19924;-70
2023/12/31 12:21:35;;;;;;;;;;;8.20;99.90;;;;;;5086191;28;20035;-69
2023/12/31 12:24:05;;;;;;;;;;;8.20;99.90;;;;;;5087168;28;19936;-69
2023/12/31 12:26:31;;;;;;;;;;;8.20;99.90;;;;;;5086888;28;19936;-70
2023/12/31 12:28:58;;;;;;;;;;;8.20;99.90;;;;;;5085366;28;19986;-69
2023/12/31 12:31:24;;;;;;;;;;;8.20;99.90;;;;;;5086241;28;20429;-69
2023/12/31 12:33:54;;;;;;;;;;;8.20;99.90;;;;;;5086341;28;19936;-69
2023/12/31 12:36:21;;;;;;;;;;;8.20;99.90;;;;;;5086871;28;20014;-69
2023/12/31 12:38:48;;;;;;;;;;;8.20;99.90;;;;;;5089670;28;20023;-69
2023/12/31 12:41:21;;;;;;;;;;;8.30;99.90;;;;;;5090715;28;19932;-71
2023/12/31 12:43:50;;;;;;;;;;;8.30;99.90;;;;;;5089641;28;20022;-70
2023/12/31 12:46:17;;;;;;;;;;;8.30;99.90;;;;;;5089510;28;19928;-70
2023/12/31 12:48:47;;;;;;;;;;;8.40;99.90;;;;;;5089136;28;20459;-70
2023/12/31 12:51:14;;;;;;;;;;;8.40;99.90;;;;;;5089424;28;19977;-70
2023/12/31 12:53:40;;;;;;;;;;;8.50;99.90;;;;;;5090137;28;19932;-70
2023/12/31 12:56:07;;;;;;;;;;;8.50;99.90;;;;;;5088896;28;19932;-69
2023/12/31 12:58:36;;;;;;;;;;;8.50;99.90;;;;;;5089674;28;19932;-69
2023/12/31 13:01:03;;;;;;;;;;;8.50;99.90;;;;;;5089785;28;19961;-69
2023/12/31 13:03:30;;;;;;;;;;;8.50;99.90;;;;;;5090093;28;19940;-70
2023/12/31 13:05:57;;;;;;;;;;;8.50;99.90;;;;;;5089475;28;19924;-69
2023/12/31 13:08:24;;;;;;;;;;;8.50;99.90;;;;;;5090385;28;19924;-70
2023/12/31 13:10:50;;;;;;;;;;;8.50;99.90;;;;;;5088971;28;19932;-70
2023/12/31 13:13:17;;;;;;;;;;;8.50;99.90;;;;;;5090138;28;19932;-67
2023/12/31 13:15:45;;;;;;;;;;;8.50;99.90;;;;;;5089082;28;19924;-68
2023/12/31 13:18:13;;;;;;;;;;;8.50;99.90;;;;;;5087077;28;19940;-68
2023/12/31 13:20:39;;;;;;;;;;;8.50;99.90;;;;;;5087859;28;19950;-68
2023/12/31 13:23:06;;;;;;;;;;;8.50;99.90;;;;;;5089221;28;19932;-68
2023/12/31 13:25:32;;;;;;;;;;;8.50;99.90;;;;;;5087067;28;20017;-68
2023/12/31 13:27:59;;;;;;;;;;;8.50;99.90;;;;;;5088613;28;19950;-68
2023/12/31 13:30:26;;;;;;;;;;;8.50;99.90;;;;;;5088160;28;19932;-68
2023/12/31 13:32:54;;;;;;;;;;;8.60;99.90;;;;;;5089048;28;20007;-68
2023/12/31 13:35:20;;;;;;;;;;;8.50;99.90;;;;;;5086117;28;20340;-68
2023/12/31 13:37:47;;;;;;;;;;;8.60;99.90;;;;;;5088622;28;19935;-68
2023/12/31 13:40:13;;;;;;;;;;;8.60;99.90;;;;;;5087887;28;19990;-68
2023/12/31 13:42:40;;;;;;;;;;;8.60;99.90;;;;;;5088339;28;19985;-69
2023/12/31 13:45:07;;;;;;;;;;;8.60;99.90;;;;;;5088908;28;19932;-69
2023/12/31 13:47:35;;;;;;;;;;;8.60;99.90;;;;;;5088641;28;19954;-68
2023/12/31 13:50:03;;;;;;;;;;;8.50;99.90;;;;;;5088655;28;20438;-68
2023/12/31 13:52:32;;;;;;;;;;;8.50;99.90;;;;;;5088642;28;19939;-68
2023/12/31 13:54:59;;;;;;;;;;;8.50;99.90;;;;;;5088786;28;20392;-68
2023/12/31 13:57:25;;;;;;;;;;;8.50;99.90;;;;;;5087683;28;19928;-68
2023/12/31 13:59:52;;;;;;;;;;;8.60;99.90;;;;;;5088038;28;19932;-68
2023/12/31 14:02:18;;;;;;;;;;;8.60;99.90;;;;;;5088294;28;19978;-69
2023/12/31 14:04:45;;;;;;;;;;;8.60;99.90;;;;;;5083978;28;19931;-68
2023/12/31 14:07:13;;;;;;;;;;;8.50;99.90;;;;;;5087460;28;19932;-69
2023/12/31 14:09:40;;;;;;;;;;;8.50;99.90;;;;;;5088426;28;19928;-68
2023/12/31 14:12:07;;;;;;;;;;;8.50;99.90;;;;;;5087450;28;19981;-68
2023/12/31 14:14:33;;;;;;;;;;;8.50;99.90;;;;;;5088229;28;19932;-69
2023/12/31 14:17:00;;;;;;;;;;;8.50;99.90;;;;;;5087703;28;21335;-69
2023/12/31 14:19:26;;;;;;;;;;;8.50;99.90;;;;;;5086610;28;19928;-69
2023/12/31 14:21:53;;;;;;;;;;;8.50;99.90;;;;;;5088550;28;19955;-69
2023/12/31 14:24:21;;;;;;;;;;;8.40;99.90;;;;;;5087767;28;20405;-69
2023/12/31 14:26:47;;;;;;;;;;;8.40;99.90;;;;;;5088487;28;19982;-69
2023/12/31 14:29:14;;;;;;;;;;;8.40;99.90;;;;;;5088246;28;19977;-69
2023/12/31 14:31:40;;;;;;;;;;;8.40;99.90;;;;;;5087092;28;19932;-69